Time,TemperatureF,DewpointF,PressureIn,WindDirection,WindDirectionDegrees,WindSpeedMPH,WindSpeedGustMPH,Humidity,HourlyPrecipIn,Conditions,Clouds,dailyrainin,SoftwareType,DateUTC
2013-03-20 00:02:00,19.0,10.0,30.01,WSW,252,3.0,16.0,67,0.00,,,0.00,,2013-03-20 05:02:00,
2013-03-20 00:12:00,19.0,10.0,30.01,West,276,4.0,10.0,68,0.00,,,0.00,,2013-03-20 05:12:00,
2013-03-20 00:22:00,19.0,10.0,30.01,West,276,4.0,10.0,68,0.00,,,0.00,,2013-03-20 05:22:00,
2013-03-20 00:32:00,19.0,11.0,30.01,West,270,3.0,10.0,69,0.00,,,0.00,,2013-03-20 05:32:00,
2013-03-20 00:42:00,19.0,11.0,30.01,West,270,3.0,10.0,69,0.00,,,0.00,,2013-03-20 05:42:00,
2013-03-20 00:52:00,18.0,10.0,30.02,West,270,6.0,13.0,69,0.00,,,0.00,,2013-03-20 05:52:00,
2013-03-20 01:02:00,18.0,10.0,30.02,West,270,6.0,13.0,69,0.00,,,0.00,,2013-03-20 06:02:00,
2013-03-20 01:12:00,18.0,10.0,30.02,West,270,6.0,13.0,69,0.00,,,0.00,,2013-03-20 06:12:00,
2013-03-20 01:22:00,18.0,9.0,30.02,West,281,5.0,13.0,67,0.00,,,0.00,,2013-03-20 06:22:00,
2013-03-20 01:32:00,17.0,9.0,30.02,West,278,5.0,11.0,69,0.00,,,0.00,,2013-03-20 06:32:00,
2013-03-20 01:43:00,17.0,9.0,30.02,West,278,5.0,11.0,69,0.00,,,0.00,,2013-03-20 06:43:00,
2013-03-20 01:53:00,17.0,8.0,30.02,WNW,287,8.0,15.0,68,0.00,,,0.00,,2013-03-20 06:53:00,
2013-03-20 02:02:00,16.0,7.0,30.02,West,277,1.0,10.0,68,0.00,,,0.00,,2013-03-20 07:02:00,
2013-03-20 02:12:00,16.0,7.0,30.02,West,277,1.0,10.0,68,0.00,,,0.00,,2013-03-20 07:12:00,
2013-03-20 02:22:00,16.0,8.0,30.02,West,280,3.0,9.0,69,0.00,,,0.00,,2013-03-20 07:22:00,
2013-03-20 02:32:00,16.0,7.0,30.02,West,276,3.0,6.0,68,0.00,,,0.00,,2013-03-20 07:32:00,
2013-03-20 02:42:00,16.0,7.0,30.02,West,276,3.0,6.0,68,0.00,,,0.00,,2013-03-20 07:42:00,
2013-03-20 02:52:00,15.0,7.0,30.02,WSW,257,2.0,8.0,69,0.00,,,0.00,,2013-03-20 07:52:00,
2013-03-20 03:02:00,15.0,7.0,30.02,West,274,3.0,11.0,69,0.00,,,0.00,,2013-03-20 08:02:00,
2013-03-20 03:12:00,15.0,7.0,30.02,West,274,3.0,11.0,69,0.00,,,0.00,,2013-03-20 08:12:00,
2013-03-20 03:22:00,14.0,6.0,30.02,West,275,3.0,7.0,69,0.00,,,0.00,,2013-03-20 08:22:00,
2013-03-20 03:32:00,14.0,6.0,30.02,West,275,3.0,7.0,69,0.00,,,0.00,,2013-03-20 08:32:00,
2013-03-20 03:42:00,14.0,6.0,30.02,West,275,3.0,7.0,69,0.00,,,0.00,,2013-03-20 08:42:00,
2013-03-20 03:51:00,14.0,6.0,30.02,West,281,3.0,9.0,70,0.00,,,0.00,,2013-03-20 08:51:00,
2013-03-20 04:02:00,14.0,6.0,30.02,West,281,3.0,9.0,70,0.00,,,0.00,,2013-03-20 09:02:00,
2013-03-20 04:12:00,14.0,6.0,30.02,West,281,3.0,9.0,70,0.00,,,0.00,,2013-03-20 09:12:00,
2013-03-20 04:22:00,13.0,5.0,30.02,West,280,5.0,9.0,70,0.00,,,0.00,,2013-03-20 09:22:00,
2013-03-20 04:32:00,13.0,5.0,30.02,West,277,3.0,10.0,70,0.00,,,0.00,,2013-03-20 09:32:00,
2013-03-20 04:43:00,13.0,5.0,30.02,West,277,3.0,10.0,70,0.00,,,0.00,,2013-03-20 09:43:00,
2013-03-20 04:53:00,13.0,5.0,30.02,West,277,3.0,10.0,70,0.00,,,0.00,,2013-03-20 09:53:00,
2013-03-20 05:03:00,12.0,4.0,30.02,West,280,3.0,10.0,70,0.00,,,0.00,,2013-03-20 10:03:00,
2013-03-20 05:12:00,12.0,4.0,30.02,West,280,3.0,10.0,70,0.00,,,0.00,,2013-03-20 10:12:00,
2013-03-20 05:22:00,12.0,4.0,30.02,West,281,3.0,9.0,70,0.00,,,0.00,,2013-03-20 10:22:00,
2013-03-20 05:32:00,11.0,3.0,30.02,West,260,3.0,9.0,70,0.00,,,0.00,,2013-03-20 10:32:00,
2013-03-20 05:42:00,11.0,3.0,30.02,West,260,3.0,9.0,70,0.00,,,0.00,,2013-03-20 10:42:00,
2013-03-20 05:52:00,11.0,3.0,30.02,West,264,2.0,9.0,69,0.00,,,0.00,,2013-03-20 10:52:00,
2013-03-20 06:03:00,11.0,3.0,30.02,West,264,5.0,12.0,69,0.00,,,0.00,,2013-03-20 11:03:00,
2013-03-20 06:12:00,11.0,3.0,30.02,West,264,5.0,12.0,69,0.00,,,0.00,,2013-03-20 11:12:00,
2013-03-20 06:22:00,11.0,2.0,30.02,WNW,286,6.0,12.0,67,0.00,,,0.00,,2013-03-20 11:22:00,
2013-03-20 06:32:00,11.0,3.0,30.03,West,261,2.0,13.0,68,0.00,,,0.00,,2013-03-20 11:32:00,
2013-03-20 06:42:00,11.0,3.0,30.03,West,261,2.0,13.0,68,0.00,,,0.00,,2013-03-20 11:42:00,
2013-03-20 06:52:00,11.0,3.0,30.03,West,261,2.0,13.0,68,0.00,,,0.00,,2013-03-20 11:52:00,
2013-03-20 07:02:00,10.0,1.0,30.03,WNW,296,7.0,15.0,67,0.00,,,0.00,,2013-03-20 12:02:00,
2013-03-20 07:12:00,10.0,1.0,30.03,WNW,296,7.0,15.0,67,0.00,,,0.00,,2013-03-20 12:12:00,
2013-03-20 07:22:00,10.0,1.0,30.04,West,268,7.0,15.0,67,0.00,,,0.00,,2013-03-20 12:22:00,
2013-03-20 07:32:00,10.0,1.0,30.04,West,268,7.0,15.0,67,0.00,,,0.00,,2013-03-20 12:32:00,
2013-03-20 07:42:00,10.0,1.0,30.04,West,268,7.0,15.0,67,0.00,,,0.00,,2013-03-20 12:42:00,
2013-03-20 07:52:00,10.0,1.0,30.05,WNW,282,6.0,14.0,66,0.00,,,0.00,,2013-03-20 12:52:00,
2013-03-20 08:03:00,10.0,1.0,30.05,West,276,5.0,14.0,65,0.00,,,0.00,,2013-03-20 13:03:00,
2013-03-20 08:12:00,10.0,1.0,30.05,West,276,5.0,14.0,65,0.00,,,0.00,,2013-03-20 13:12:00,
2013-03-20 08:22:00,10.0,1.0,30.05,WNW,289,8.0,16.0,65,0.00,,,0.00,,2013-03-20 13:22:00,
2013-03-20 08:32:00,11.0,1.0,30.05,WNW,290,9.0,15.0,64,0.00,,,0.00,,2013-03-20 13:32:00,
2013-03-20 08:42:00,11.0,1.0,30.05,WNW,290,9.0,15.0,64,0.00,,,0.00,,2013-03-20 13:42:00,
2013-03-20 08:52:00,11.0,1.0,30.05,WNW,282,7.0,13.0,64,0.00,,,0.00,,2013-03-20 13:52:00,
2013-03-20 09:02:00,11.0,1.0,30.05,West,280,8.0,14.0,64,0.00,,,0.00,,2013-03-20 14:02:00,
2013-03-20 09:12:00,11.0,1.0,30.05,West,280,8.0,14.0,64,0.00,,,0.00,,2013-03-20 14:12:00,
2013-03-20 09:22:00,11.0,1.0,30.05,West,264,10.0,18.0,64,0.00,,,0.00,,2013-03-20 14:22:00,
2013-03-20 09:33:00,11.0,1.0,30.05,West,273,11.0,20.0,64,0.00,,,0.00,,2013-03-20 14:33:00,
2013-03-20 09:42:00,11.0,1.0,30.05,West,273,11.0,20.0,64,0.00,,,0.00,,2013-03-20 14:42:00,
2013-03-20 09:52:00,11.0,1.0,30.05,WNW,293,9.0,18.0,64,0.00,,,0.00,,2013-03-20 14:52:00,
2013-03-20 10:02:00,12.0,2.0,30.04,West,279,8.0,14.0,63,0.00,,,0.00,,2013-03-20 15:02:00,
2013-03-20 10:12:00,13.0,3.0,30.04,West,268,5.0,14.0,65,0.00,,,0.00,,2013-03-20 15:12:00,
2013-03-20 10:22:00,13.0,3.0,30.04,West,268,5.0,14.0,65,0.00,,,0.00,,2013-03-20 15:22:00,
2013-03-20 10:33:00,13.0,3.0,30.04,West,280,8.0,18.0,64,0.00,,,0.00,,2013-03-20 15:33:00,
2013-03-20 10:43:00,13.0,3.0,30.04,West,280,8.0,18.0,64,0.00,,,0.00,,2013-03-20 15:43:00,
2013-03-20 10:52:00,13.0,3.0,30.04,West,280,8.0,18.0,64,0.00,,,0.00,,2013-03-20 15:52:00,
2013-03-20 11:03:00,14.0,3.0,30.04,West,272,6.0,13.0,62,0.00,,,0.00,,2013-03-20 16:03:00,
2013-03-20 11:12:00,14.0,3.0,30.04,West,272,6.0,13.0,62,0.00,,,0.00,,2013-03-20 16:12:00,
2013-03-20 11:23:00,14.0,4.0,30.03,West,265,7.0,15.0,63,0.00,,,0.00,,2013-03-20 16:23:00,
2013-03-20 11:32:00,14.0,4.0,30.03,West,265,7.0,15.0,63,0.00,,,0.00,,2013-03-20 16:32:00,
2013-03-20 11:42:00,14.0,4.0,30.03,West,265,7.0,15.0,63,0.00,,,0.00,,2013-03-20 16:42:00,
2013-03-20 11:52:00,15.0,5.0,30.03,West,267,6.0,18.0,63,0.00,,,0.00,,2013-03-20 16:52:00,
2013-03-20 12:03:00,16.0,6.0,30.03,West,279,8.0,15.0,63,0.00,,,0.00,,2013-03-20 17:03:00,
2013-03-20 12:12:00,16.0,6.0,30.03,West,279,8.0,15.0,63,0.00,,,0.00,,2013-03-20 17:12:00,
2013-03-20 12:22:00,16.0,5.0,30.03,West,262,6.0,18.0,62,0.00,,,0.00,,2013-03-20 17:22:00,
2013-03-20 12:32:00,16.0,5.0,30.03,West,262,6.0,18.0,62,0.00,,,0.00,,2013-03-20 17:32:00,
2013-03-20 12:42:00,16.0,5.0,30.03,West,262,6.0,18.0,62,0.00,,,0.00,,2013-03-20 17:42:00,
2013-03-20 12:52:00,18.0,7.0,30.03,WNW,282,8.0,15.0,62,0.00,,,0.00,,2013-03-20 17:52:00,
2013-03-20 13:02:00,18.0,7.0,30.02,WNW,282,7.0,15.0,62,0.00,,,0.00,,2013-03-20 18:02:00,
2013-03-20 13:12:00,18.0,7.0,30.02,WNW,282,7.0,15.0,62,0.00,,,0.00,,2013-03-20 18:12:00,
2013-03-20 13:22:00,19.0,8.0,30.03,West,274,9.0,16.0,61,0.00,,,0.00,,2013-03-20 18:22:00,
2013-03-20 13:33:00,19.0,8.0,30.02,West,265,5.0,16.0,62,0.00,,,0.00,,2013-03-20 18:33:00,
2013-03-20 13:42:00,19.0,8.0,30.02,West,265,5.0,16.0,62,0.00,,,0.00,,2013-03-20 18:42:00,
2013-03-20 13:52:00,19.0,8.0,30.02,West,278,7.0,19.0,61,0.00,,,0.00,,2013-03-20 18:52:00,
2013-03-20 14:02:00,19.0,8.0,30.02,West,278,7.0,19.0,61,0.00,,,0.00,,2013-03-20 19:02:00,
2013-03-20 14:12:00,19.0,8.0,30.02,West,278,7.0,19.0,61,0.00,,,0.00,,2013-03-20 19:12:00,
2013-03-20 14:22:00,20.0,8.0,30.01,West,260,6.0,14.0,60,0.00,,,0.00,,2013-03-20 19:22:00,
2013-03-20 14:32:00,20.0,8.0,30.01,West,260,6.0,14.0,60,0.00,,,0.00,,2013-03-20 19:32:00,
2013-03-20 14:42:00,20.0,8.0,30.01,West,260,6.0,14.0,60,0.00,,,0.00,,2013-03-20 19:42:00,
2013-03-20 14:53:00,20.0,8.0,30.00,West,267,6.0,16.0,59,0.00,,,0.00,,2013-03-20 19:53:00,
2013-03-20 15:02:00,20.0,9.0,30.00,WNW,285,6.0,23.0,62,0.00,,,0.00,,2013-03-20 20:02:00,
2013-03-20 15:13:00,20.0,9.0,30.00,WNW,285,6.0,23.0,62,0.00,,,0.00,,2013-03-20 20:13:00,
2013-03-20 15:22:00,20.0,8.0,29.99,WNW,293,7.0,16.0,59,0.00,,,0.00,,2013-03-20 20:22:00,
2013-03-20 15:32:00,20.0,8.0,30.00,West,276,9.0,16.0,60,0.00,,,0.00,,2013-03-20 20:32:00,
2013-03-20 15:42:00,20.0,8.0,30.00,West,276,9.0,16.0,60,0.00,,,0.00,,2013-03-20 20:42:00,
2013-03-20 15:52:00,19.0,7.0,29.99,NW,304,6.0,16.0,59,0.00,,,0.00,,2013-03-20 20:52:00,
2013-03-20 16:02:00,20.0,9.0,30.00,WNW,291,5.0,13.0,61,0.00,,,0.00,,2013-03-20 21:02:00,
2013-03-20 16:12:00,20.0,9.0,30.00,WNW,291,5.0,13.0,61,0.00,,,0.00,,2013-03-20 21:12:00,
2013-03-20 16:22:00,20.0,8.0,30.00,WNW,297,5.0,13.0,60,0.00,,,0.00,,2013-03-20 21:22:00,
2013-03-20 16:33:00,20.0,8.0,30.00,WNW,294,8.0,15.0,59,0.00,,,0.00,,2013-03-20 21:33:00,
2013-03-20 16:42:00,20.0,8.0,30.00,WNW,294,8.0,15.0,59,0.00,,,0.00,,2013-03-20 21:42:00,
2013-03-20 16:52:00,20.0,8.0,30.00,WNW,302,6.0,15.0,59,0.00,,,0.00,,2013-03-20 21:52:00,
2013-03-20 17:03:00,20.0,8.0,30.00,WNW,291,7.0,15.0,58,0.00,,,0.00,,2013-03-20 22:03:00,
2013-03-20 17:12:00,20.0,8.0,30.00,WNW,291,7.0,15.0,58,0.00,,,0.00,,2013-03-20 22:12:00,
2013-03-20 17:23:00,20.0,8.0,30.01,WNW,301,5.0,13.0,58,0.00,,,0.00,,2013-03-20 22:23:00,
2013-03-20 17:32:00,19.0,7.0,30.01,WNW,292,7.0,15.0,59,0.00,,,0.00,,2013-03-20 22:32:00,
2013-03-20 17:42:00,19.0,7.0,30.01,WNW,292,7.0,15.0,59,0.00,,,0.00,,2013-03-20 22:42:00,
2013-03-20 17:52:00,19.0,7.0,30.01,NW,304,4.0,12.0,59,0.00,,,0.00,,2013-03-20 22:52:00,
2013-03-20 18:02:00,19.0,7.0,30.01,NW,307,5.0,15.0,58,0.00,,,0.00,,2013-03-20 23:02:00,
2013-03-20 18:12:00,19.0,7.0,30.01,NW,307,5.0,15.0,58,0.00,,,0.00,,2013-03-20 23:12:00,
2013-03-20 18:22:00,20.0,8.0,30.01,NW,309,5.0,11.0,59,0.00,,,0.00,,2013-03-20 23:22:00,
2013-03-20 18:32:00,20.0,8.0,30.01,NW,321,2.0,10.0,60,0.00,,,0.00,,2013-03-20 23:32:00,
2013-03-20 18:42:00,20.0,8.0,30.01,NW,321,2.0,10.0,60,0.00,,,0.00,,2013-03-20 23:42:00,
2013-03-20 18:52:00,19.0,9.0,30.02,WNW,288,4.0,9.0,65,0.00,,,0.00,,2013-03-20 23:52:00,
2013-03-20 19:02:00,19.0,7.0,30.02,NW,304,3.0,11.0,60,0.00,,,0.00,,2013-03-21 00:02:00,
2013-03-20 19:12:00,19.0,7.0,30.02,NW,304,3.0,11.0,60,0.00,,,0.00,,2013-03-21 00:12:00,
2013-03-20 19:23:00,18.0,7.0,30.01,WNW,291,4.0,11.0,62,0.00,,,0.00,,2013-03-21 00:23:00,
2013-03-20 19:32:00,17.0,7.0,30.02,WNW,302,3.0,9.0,63,0.00,,,0.00,,2013-03-21 00:32:00,
2013-03-20 19:42:00,17.0,7.0,30.02,WNW,302,3.0,9.0,63,0.00,,,0.00,,2013-03-21 00:42:00,
2013-03-20 19:52:00,17.0,7.0,30.02,NW,304,2.0,8.0,64,0.00,,,0.00,,2013-03-21 00:52:00,
2013-03-20 20:02:00,17.0,7.0,30.02,NW,304,2.0,8.0,64,0.00,,,0.00,,2013-03-21 01:02:00,
2013-03-20 20:12:00,17.0,7.0,30.02,NW,304,2.0,8.0,64,0.00,,,0.00,,2013-03-21 01:12:00,
2013-03-20 20:22:00,16.0,6.0,30.02,WNW,296,1.0,5.0,65,0.00,,,0.00,,2013-03-21 01:22:00,
2013-03-20 20:32:00,16.0,7.0,30.03,WNW,296,2.0,5.0,66,0.00,,,0.00,,2013-03-21 01:32:00,
2013-03-20 20:42:00,16.0,7.0,30.03,WNW,296,2.0,5.0,66,0.00,,,0.00,,2013-03-21 01:42:00,
2013-03-20 20:53:00,15.0,6.0,30.03,North,0,0.0,6.0,66,0.00,,,0.00,,2013-03-21 01:53:00,
2013-03-20 21:02:00,15.0,6.0,30.03,North,0,0.0,4.0,67,0.00,,,0.00,,2013-03-21 02:02:00,
2013-03-20 21:12:00,15.0,6.0,30.03,North,0,0.0,4.0,67,0.00,,,0.00,,2013-03-21 02:12:00,
2013-03-20 21:22:00,14.0,5.0,30.03,North,0,0.0,2.0,68,0.00,,,0.00,,2013-03-21 02:22:00,
2013-03-20 21:32:00,14.0,5.0,30.03,West,281,1.0,6.0,67,0.00,,,0.00,,2013-03-21 02:32:00,
2013-03-20 21:42:00,14.0,5.0,30.03,West,281,1.0,6.0,67,0.00,,,0.00,,2013-03-21 02:42:00,
2013-03-20 21:51:00,14.0,5.0,30.03,West,281,1.0,6.0,67,0.00,,,0.00,,2013-03-21 02:51:00,
2013-03-20 22:02:00,14.0,5.0,30.03,NW,304,1.0,5.0,68,0.00,,,0.00,,2013-03-21 03:02:00,
2013-03-20 22:12:00,14.0,5.0,30.03,NW,304,1.0,5.0,68,0.00,,,0.00,,2013-03-21 03:12:00,
2013-03-20 22:22:00,14.0,5.0,30.03,NW,304,1.0,5.0,68,0.00,,,0.00,,2013-03-21 03:22:00,
2013-03-20 22:32:00,14.0,5.0,30.03,NW,304,1.0,5.0,68,0.00,,,0.00,,2013-03-21 03:32:00,
2013-03-20 22:43:00,14.0,5.0,30.03,NW,304,1.0,5.0,68,0.00,,,0.00,,2013-03-21 03:43:00,
2013-03-20 22:52:00,14.0,5.0,30.04,WNW,294,3.0,7.0,68,0.00,,,0.00,,2013-03-21 03:52:00,
2013-03-20 23:03:00,14.0,5.0,30.04,WNW,294,3.0,7.0,68,0.00,,,0.00,,2013-03-21 04:03:00,
2013-03-20 23:13:00,14.0,5.0,30.04,WNW,294,3.0,7.0,68,0.00,,,0.00,,2013-03-21 04:13:00,
2013-03-20 23:23:00,13.0,4.0,30.03,WNW,297,2.0,8.0,68,0.00,,,0.00,,2013-03-21 04:23:00,
2013-03-20 23:32:00,13.0,5.0,30.03,WNW,286,2.0,7.0,69,0.00,,,0.00,,2013-03-21 04:32:00,
2013-03-20 23:43:00,13.0,5.0,30.03,WNW,286,2.0,7.0,69,0.00,,,0.00,,2013-03-21 04:43:00,
2013-03-20 23:53:00,12.0,4.0,30.03,West,272,2.0,7.0,70,0.00,,,0.00,,2013-03-21 04:53:00,